EJU58FH LFPO-LIRF
Flight info
| Callsign | EJU58FH |
|---|---|
| Flight time | 1h 33m |
| Altitude | 39000 |
| Route | OKASI DCT OKEKO DCT MOU DCT MADIV DCT MOKIP DCT TUFTA DCT KOGAS DCT MEDAM DCT NITAM DCT MOGBO DCT ELB/N0440F380 DCT ELKAP |
| Aircraft | A20N/M-SDE2E3FGHIRWXY/LB1 |
Departure
| Time | 2026-05-05 07:05 |
|---|---|
| Airport | Paris-Orly Airport (LFPO) |
Arrival
| Time | 2026-05-05 08:38 |
|---|---|
| Airport | Rome–Fiumicino Leonardo da Vinci International Airport (LIRF) |
| Time | Latitude | Longitude | Altitude | Speed | Heading |
|---|---|---|---|---|---|
| 2026-05-05 06:43 | 48.73181 | 2.36141 | 284 ft | 0 kts | 159° |
| 2026-05-05 06:54 | 48.73182 | 2.36141 | 284 ft | 0 kts | 159° |
| 2026-05-05 06:54 | 48.73194 | 2.36134 | 284 ft | 2 kts | 159° |
| 2026-05-05 06:55 | 48.73208 | 2.36126 | 284 ft | 2 kts | 159° |
| 2026-05-05 06:55 | 48.73222 | 2.36118 | 284 ft | 2 kts | 159° |
| 2026-05-05 06:55 | 48.73236 | 2.36110 | 284 ft | 2 kts | 159° |
| 2026-05-05 06:55 | 48.73251 | 2.36103 | 284 ft | 2 kts | 179° |
| 2026-05-05 06:56 | 48.73263 | 2.36106 | 284 ft | 0 kts | 200° |
| 2026-05-05 06:56 | 48.73269 | 2.36110 | 284 ft | 1 kts | 205° |
| 2026-05-05 06:56 | 48.73270 | 2.36111 | 284 ft | 0 kts | 205° |
| 2026-05-05 06:58 | 48.73269 | 2.36109 | 284 ft | 1 kts | 223° |
| 2026-05-05 06:58 | 48.73247 | 2.36074 | 284 ft | 7 kts | 226° |
| 2026-05-05 06:58 | 48.73211 | 2.36014 | 284 ft | 7 kts | 233° |
| 2026-05-05 06:59 | 48.73181 | 2.35947 | 284 ft | 7 kts | 236° |
| 2026-05-05 06:59 | 48.73151 | 2.35878 | 284 ft | 7 kts | 237° |
| 2026-05-05 06:59 | 48.73122 | 2.35806 | 283 ft | 8 kts | 238° |
| 2026-05-05 06:59 | 48.73087 | 2.35719 | 282 ft | 10 kts | 239° |
| 2026-05-05 07:00 | 48.73046 | 2.35619 | 281 ft | 11 kts | 236° |
| 2026-05-05 07:00 | 48.72980 | 2.35537 | 278 ft | 13 kts | 197° |
| 2026-05-05 07:00 | 48.72919 | 2.35496 | 278 ft | 9 kts | 241° |
| 2026-05-05 07:00 | 48.72882 | 2.35428 | 279 ft | 8 kts | 197° |
| 2026-05-05 07:01 | 48.72819 | 2.35446 | 278 ft | 10 kts | 163° |
| 2026-05-05 07:01 | 48.72743 | 2.35479 | 278 ft | 12 kts | 164° |
| 2026-05-05 07:01 | 48.72664 | 2.35511 | 277 ft | 11 kts | 165° |
| 2026-05-05 07:01 | 48.72587 | 2.35542 | 277 ft | 10 kts | 164° |
| 2026-05-05 07:02 | 48.72512 | 2.35575 | 277 ft | 11 kts | 163° |
| 2026-05-05 07:02 | 48.72429 | 2.35612 | 277 ft | 12 kts | 163° |
| 2026-05-05 07:02 | 48.72346 | 2.35641 | 277 ft | 11 kts | 184° |
| 2026-05-05 07:02 | 48.72262 | 2.35609 | 277 ft | 13 kts | 194° |
| 2026-05-05 07:03 | 48.72173 | 2.35624 | 278 ft | 13 kts | 164° |
| 2026-05-05 07:03 | 48.72094 | 2.35662 | 277 ft | 11 kts | 156° |
| 2026-05-05 07:03 | 48.72034 | 2.35735 | 279 ft | 10 kts | 123° |
| 2026-05-05 07:03 | 48.71998 | 2.35832 | 281 ft | 9 kts | 118° |
| 2026-05-05 07:04 | 48.71965 | 2.35928 | 281 ft | 10 kts | 112° |
| 2026-05-05 07:04 | 48.71991 | 2.36124 | 281 ft | 45 kts | 75° |
| 2026-05-05 07:04 | 48.72146 | 2.36960 | 284 ft | 115 kts | 74° |
| 2026-05-05 07:04 | 48.72415 | 2.38422 | 322 ft | 167 kts | 73° |
| 2026-05-05 07:05 | 48.72719 | 2.40106 | 982 ft | 167 kts | 74° |
| 2026-05-05 07:05 | 48.73012 | 2.41758 | 1838 ft | 163 kts | 72° |
| 2026-05-05 07:05 | 48.73321 | 2.43398 | 2514 ft | 167 kts | 73° |
| 2026-05-05 07:05 | 48.73655 | 2.45174 | 2950 ft | 183 kts | 73° |
| 2026-05-05 07:06 | 48.74011 | 2.47124 | 3340 ft | 204 kts | 76° |
| 2026-05-05 07:06 | 48.74285 | 2.49384 | 3787 ft | 226 kts | 82° |
| 2026-05-05 07:06 | 48.74383 | 2.51823 | 4309 ft | 244 kts | 90° |
| 2026-05-05 07:06 | 48.74304 | 2.54481 | 5039 ft | 255 kts | 92° |
| 2026-05-05 07:07 | 48.73923 | 2.57084 | 5888 ft | 262 kts | 115° |
| 2026-05-05 07:07 | 48.72754 | 2.59192 | 6767 ft | 270 kts | 141° |
| 2026-05-05 07:07 | 48.71003 | 2.60336 | 7642 ft | 279 kts | 163° |
| 2026-05-05 07:07 | 48.69085 | 2.60992 | 8526 ft | 282 kts | 164° |
| 2026-05-05 07:08 | 48.67148 | 2.61664 | 9391 ft | 286 kts | 163° |
| 2026-05-05 07:08 | 48.65171 | 2.62234 | 10219 ft | 292 kts | 174° |
| 2026-05-05 07:08 | 48.63102 | 2.61905 | 10749 ft | 311 kts | 194° |
| 2026-05-05 07:08 | 48.61073 | 2.60559 | 11171 ft | 330 kts | 205° |
| 2026-05-05 07:09 | 48.58971 | 2.58883 | 11572 ft | 348 kts | 206° |
| 2026-05-05 07:09 | 48.56766 | 2.57115 | 12198 ft | 358 kts | 206° |
| 2026-05-05 07:09 | 48.54530 | 2.55349 | 13017 ft | 360 kts | 205° |
| 2026-05-05 07:09 | 48.52270 | 2.53589 | 13820 ft | 362 kts | 205° |
| 2026-05-05 07:10 | 48.50039 | 2.51862 | 14589 ft | 365 kts | 205° |
| 2026-05-05 07:10 | 48.47696 | 2.50308 | 15312 ft | 367 kts | 193° |
| 2026-05-05 07:10 | 48.45145 | 2.50045 | 16027 ft | 366 kts | 170° |
| 2026-05-05 07:10 | 48.42716 | 2.51194 | 16763 ft | 366 kts | 153° |
| 2026-05-05 07:11 | 48.40463 | 2.52986 | 17451 ft | 368 kts | 151° |
| 2026-05-05 07:11 | 48.38126 | 2.54842 | 18115 ft | 372 kts | 151° |
| 2026-05-05 07:11 | 48.35849 | 2.56624 | 18764 ft | 375 kts | 152° |
| 2026-05-05 07:11 | 48.33504 | 2.58440 | 19410 ft | 378 kts | 152° |
| 2026-05-05 07:12 | 48.31193 | 2.60220 | 20010 ft | 381 kts | 152° |
| 2026-05-05 07:12 | 48.28796 | 2.62060 | 20617 ft | 384 kts | 152° |
| 2026-05-05 07:12 | 48.26388 | 2.63910 | 21209 ft | 388 kts | 152° |
| 2026-05-05 07:12 | 48.23958 | 2.65778 | 21775 ft | 391 kts | 153° |
| 2026-05-05 07:13 | 48.21499 | 2.67668 | 22318 ft | 395 kts | 153° |
| 2026-05-05 07:13 | 48.19021 | 2.69571 | 22871 ft | 398 kts | 153° |
| 2026-05-05 07:13 | 48.16537 | 2.71477 | 23391 ft | 402 kts | 153° |
| 2026-05-05 07:13 | 48.14031 | 2.73397 | 23905 ft | 405 kts | 153° |
| 2026-05-05 07:14 | 48.11525 | 2.75314 | 24459 ft | 407 kts | 153° |
| 2026-05-05 07:14 | 48.08938 | 2.77271 | 25029 ft | 408 kts | 155° |
| 2026-05-05 07:14 | 48.06291 | 2.79049 | 25587 ft | 409 kts | 157° |
| 2026-05-05 07:14 | 48.03661 | 2.80719 | 26111 ft | 410 kts | 157° |
| 2026-05-05 07:15 | 48.01017 | 2.82404 | 26613 ft | 412 kts | 157° |
| 2026-05-05 07:15 | 47.98387 | 2.84078 | 27093 ft | 413 kts | 157° |
| 2026-05-05 07:15 | 47.95750 | 2.85754 | 27551 ft | 414 kts | 157° |
| 2026-05-05 07:15 | 47.93102 | 2.87435 | 27986 ft | 415 kts | 158° |
| 2026-05-05 07:16 | 47.90443 | 2.89122 | 28409 ft | 417 kts | 157° |
| 2026-05-05 07:16 | 47.87791 | 2.90889 | 28797 ft | 419 kts | 152° |
| 2026-05-05 07:16 | 47.85509 | 2.93576 | 29166 ft | 423 kts | 134° |
| 2026-05-05 07:16 | 47.83632 | 2.96945 | 29802 ft | 419 kts | 131° |
| 2026-05-05 07:17 | 47.81825 | 3.00230 | 30414 ft | 415 kts | 131° |
| 2026-05-05 07:17 | 47.79990 | 3.03535 | 30955 ft | 412 kts | 132° |
| 2026-05-05 07:17 | 47.78171 | 3.06785 | 31412 ft | 410 kts | 133° |
| 2026-05-05 07:17 | 47.76352 | 3.10015 | 31824 ft | 408 kts | 133° |
| 2026-05-05 07:18 | 47.74531 | 3.13236 | 32211 ft | 407 kts | 133° |
| 2026-05-05 07:18 | 47.72711 | 3.16442 | 32577 ft | 407 kts | 133° |
| 2026-05-05 07:18 | 47.70901 | 3.19628 | 32947 ft | 406 kts | 133° |
| 2026-05-05 07:18 | 47.69099 | 3.22794 | 33301 ft | 405 kts | 133° |
| 2026-05-05 07:19 | 47.67296 | 3.25955 | 33613 ft | 404 kts | 133° |
| 2026-05-05 07:19 | 47.65464 | 3.29159 | 33906 ft | 404 kts | 133° |
| 2026-05-05 07:19 | 47.63667 | 3.32301 | 34211 ft | 404 kts | 133° |
| 2026-05-05 07:19 | 47.61850 | 3.35475 | 34520 ft | 403 kts | 133° |
| 2026-05-05 07:20 | 47.60047 | 3.38619 | 34784 ft | 402 kts | 133° |
| 2026-05-05 07:20 | 47.58248 | 3.41751 | 34974 ft | 402 kts | 134° |
| 2026-05-05 07:20 | 47.56435 | 3.44905 | 35130 ft | 402 kts | 134° |
| 2026-05-05 07:20 | 47.54627 | 3.48041 | 35247 ft | 404 kts | 133° |
| 2026-05-05 07:21 | 47.52795 | 3.51219 | 35368 ft | 406 kts | 133° |
| 2026-05-05 07:21 | 47.50988 | 3.54353 | 35499 ft | 407 kts | 133° |
| 2026-05-05 07:21 | 47.49144 | 3.57543 | 35640 ft | 408 kts | 133° |
| 2026-05-05 07:21 | 47.47315 | 3.60706 | 35742 ft | 409 kts | 133° |
| 2026-05-05 07:22 | 47.45466 | 3.63898 | 35860 ft | 410 kts | 133° |
| 2026-05-05 07:22 | 47.43593 | 3.67130 | 35980 ft | 412 kts | 134° |
| 2026-05-05 07:22 | 47.41747 | 3.70310 | 36103 ft | 413 kts | 134° |
| 2026-05-05 07:22 | 47.39890 | 3.73509 | 36268 ft | 414 kts | 134° |
| 2026-05-05 07:23 | 47.38002 | 3.76756 | 36423 ft | 415 kts | 134° |
| 2026-05-05 07:23 | 47.36137 | 3.79959 | 36574 ft | 416 kts | 134° |
| 2026-05-05 07:23 | 47.34256 | 3.83184 | 36727 ft | 417 kts | 134° |
| 2026-05-05 07:23 | 47.32382 | 3.86392 | 36862 ft | 418 kts | 134° |
| 2026-05-05 07:24 | 47.30483 | 3.89641 | 37004 ft | 419 kts | 134° |
| 2026-05-05 07:24 | 47.28579 | 3.92896 | 37124 ft | 421 kts | 134° |
| 2026-05-05 07:24 | 47.26670 | 3.96157 | 37249 ft | 422 kts | 134° |
| 2026-05-05 07:24 | 47.24764 | 3.99404 | 37356 ft | 424 kts | 134° |
| 2026-05-05 07:25 | 47.22831 | 4.02695 | 37460 ft | 425 kts | 134° |
| 2026-05-05 07:25 | 47.18958 | 4.09278 | 37636 ft | 429 kts | 134° |
| 2026-05-05 07:26 | 47.15042 | 4.15920 | 37837 ft | 431 kts | 134° |
| 2026-05-05 07:26 | 47.11128 | 4.22538 | 38019 ft | 433 kts | 134° |
| 2026-05-05 07:27 | 47.07156 | 4.29237 | 38192 ft | 435 kts | 134° |
| 2026-05-05 07:27 | 47.03182 | 4.35930 | 38342 ft | 438 kts | 134° |
| 2026-05-05 07:28 | 46.99209 | 4.42602 | 38465 ft | 440 kts | 134° |
| 2026-05-05 07:28 | 46.95155 | 4.49391 | 38619 ft | 442 kts | 134° |
| 2026-05-05 07:29 | 46.91137 | 4.56106 | 38783 ft | 443 kts | 134° |
| 2026-05-05 07:29 | 46.87079 | 4.62867 | 38857 ft | 444 kts | 134° |
| 2026-05-05 07:30 | 46.83013 | 4.69627 | 38865 ft | 444 kts | 135° |
| 2026-05-05 07:30 | 46.76904 | 4.79750 | 38870 ft | 444 kts | 135° |
| 2026-05-05 07:31 | 46.72820 | 4.86501 | 38869 ft | 444 kts | 135° |
| 2026-05-05 07:31 | 46.68751 | 4.93208 | 38880 ft | 444 kts | 135° |
| 2026-05-05 07:32 | 46.64673 | 4.99912 | 38873 ft | 444 kts | 135° |
| 2026-05-05 07:32 | 46.60577 | 5.06629 | 38877 ft | 444 kts | 135° |
| 2026-05-05 07:33 | 46.56488 | 5.13316 | 38886 ft | 444 kts | 135° |
| 2026-05-05 07:33 | 46.52405 | 5.19983 | 38879 ft | 444 kts | 135° |
| 2026-05-05 07:34 | 46.48313 | 5.26650 | 38878 ft | 444 kts | 135° |
| 2026-05-05 07:34 | 46.44221 | 5.33299 | 38883 ft | 444 kts | 135° |
| 2026-05-05 07:35 | 46.40102 | 5.39973 | 38880 ft | 444 kts | 135° |
| 2026-05-05 07:35 | 46.36060 | 5.46663 | 38876 ft | 444 kts | 134° |
| 2026-05-05 07:36 | 46.32074 | 5.53458 | 38876 ft | 444 kts | 134° |
| 2026-05-05 07:36 | 46.28078 | 5.60248 | 38873 ft | 444 kts | 134° |
| 2026-05-05 07:37 | 46.24073 | 5.67022 | 38879 ft | 444 kts | 135° |
| 2026-05-05 07:37 | 46.20076 | 5.73758 | 38877 ft | 444 kts | 135° |
| 2026-05-05 07:38 | 46.16067 | 5.80501 | 38885 ft | 444 kts | 135° |
| 2026-05-05 07:38 | 46.12058 | 5.87222 | 38885 ft | 444 kts | 135° |
| 2026-05-05 07:39 | 46.08025 | 5.93970 | 38888 ft | 444 kts | 135° |
| 2026-05-05 07:39 | 46.04007 | 6.00677 | 38895 ft | 444 kts | 135° |
| 2026-05-05 07:40 | 45.99999 | 6.07349 | 38903 ft | 444 kts | 135° |
| 2026-05-05 07:40 | 45.95977 | 6.14033 | 38917 ft | 444 kts | 135° |
| 2026-05-05 07:41 | 45.91930 | 6.20740 | 38922 ft | 443 kts | 135° |
| 2026-05-05 07:41 | 45.87903 | 6.27403 | 38913 ft | 444 kts | 135° |
| 2026-05-05 07:42 | 45.83855 | 6.34008 | 38948 ft | 442 kts | 137° |
| 2026-05-05 07:42 | 45.79446 | 6.40068 | 38936 ft | 440 kts | 144° |
| 2026-05-05 07:43 | 45.74598 | 6.45388 | 38940 ft | 439 kts | 149° |
| 2026-05-05 07:43 | 45.69635 | 6.50434 | 38938 ft | 440 kts | 149° |
| 2026-05-05 07:44 | 45.64665 | 6.55490 | 38940 ft | 439 kts | 149° |
| 2026-05-05 07:44 | 45.59690 | 6.60534 | 38946 ft | 440 kts | 149° |
| 2026-05-05 07:45 | 45.54725 | 6.65558 | 38942 ft | 439 kts | 149° |
| 2026-05-05 07:45 | 45.49732 | 6.70602 | 38929 ft | 439 kts | 150° |
| 2026-05-05 07:46 | 45.44781 | 6.75590 | 38953 ft | 439 kts | 150° |
| 2026-05-05 07:46 | 45.39792 | 6.80607 | 38959 ft | 439 kts | 150° |
| 2026-05-05 07:47 | 45.34815 | 6.85605 | 38959 ft | 438 kts | 150° |
| 2026-05-05 07:47 | 45.29864 | 6.90557 | 38954 ft | 439 kts | 149° |
| 2026-05-05 07:48 | 45.25086 | 6.95931 | 38978 ft | 442 kts | 143° |
| 2026-05-05 07:48 | 45.20646 | 7.01944 | 39000 ft | 441 kts | 141° |
| 2026-05-05 07:49 | 45.16280 | 7.07965 | 38979 ft | 440 kts | 141° |
| 2026-05-05 07:49 | 45.11945 | 7.14122 | 38956 ft | 442 kts | 137° |
| 2026-05-05 07:50 | 45.08070 | 7.20824 | 38961 ft | 444 kts | 131° |
| 2026-05-05 07:50 | 45.04539 | 7.27944 | 38969 ft | 442 kts | 130° |
| 2026-05-05 07:51 | 45.01019 | 7.35043 | 38968 ft | 442 kts | 130° |
| 2026-05-05 07:51 | 44.97250 | 7.41835 | 38981 ft | 439 kts | 137° |
| 2026-05-05 07:52 | 44.93008 | 7.47991 | 38973 ft | 439 kts | 140° |
| 2026-05-05 07:52 | 44.88685 | 7.54019 | 38970 ft | 440 kts | 140° |
| 2026-05-05 07:53 | 44.84349 | 7.60063 | 38979 ft | 440 kts | 140° |
| 2026-05-05 07:53 | 44.79995 | 7.66119 | 38981 ft | 440 kts | 141° |
| 2026-05-05 07:54 | 44.75639 | 7.72166 | 38984 ft | 440 kts | 141° |
| 2026-05-05 07:54 | 44.71286 | 7.78194 | 38967 ft | 440 kts | 141° |
| 2026-05-05 07:55 | 44.66948 | 7.84189 | 38966 ft | 440 kts | 141° |
| 2026-05-05 07:55 | 44.62590 | 7.90205 | 38972 ft | 440 kts | 141° |
| 2026-05-05 07:56 | 44.58268 | 7.96155 | 38970 ft | 439 kts | 141° |
| 2026-05-05 07:56 | 44.53889 | 8.02167 | 38942 ft | 439 kts | 141° |
| 2026-05-05 07:57 | 44.49549 | 8.08115 | 38937 ft | 440 kts | 141° |
| 2026-05-05 07:57 | 44.45174 | 8.14095 | 38938 ft | 439 kts | 141° |
| 2026-05-05 07:58 | 44.40818 | 8.20037 | 38933 ft | 439 kts | 141° |
| 2026-05-05 07:58 | 44.36478 | 8.25946 | 38932 ft | 439 kts | 141° |
| 2026-05-05 07:59 | 44.32093 | 8.31902 | 38930 ft | 439 kts | 141° |
| 2026-05-05 07:59 | 44.27725 | 8.37822 | 38938 ft | 439 kts | 141° |
| 2026-05-05 08:00 | 44.23347 | 8.43741 | 38941 ft | 439 kts | 141° |
| 2026-05-05 08:00 | 44.18985 | 8.49629 | 38935 ft | 439 kts | 141° |
| 2026-05-05 08:01 | 44.14591 | 8.55543 | 38925 ft | 440 kts | 141° |
| 2026-05-05 08:01 | 44.10184 | 8.61463 | 38931 ft | 441 kts | 141° |
| 2026-05-05 08:02 | 44.05803 | 8.67340 | 38926 ft | 441 kts | 142° |
| 2026-05-05 08:02 | 44.01378 | 8.73258 | 38930 ft | 441 kts | 142° |
| 2026-05-05 08:03 | 43.96970 | 8.79140 | 38927 ft | 443 kts | 142° |
| 2026-05-05 08:03 | 43.92518 | 8.85073 | 38927 ft | 443 kts | 142° |
| 2026-05-05 08:04 | 43.88071 | 8.90982 | 38926 ft | 443 kts | 142° |
| 2026-05-05 08:04 | 43.83633 | 8.96865 | 38923 ft | 444 kts | 142° |
| 2026-05-05 08:05 | 43.79407 | 9.03056 | 38928 ft | 447 kts | 136° |
| 2026-05-05 08:05 | 43.75287 | 9.09499 | 38927 ft | 448 kts | 136° |
| 2026-05-05 08:06 | 43.71149 | 9.15921 | 38933 ft | 448 kts | 137° |
| 2026-05-05 08:06 | 43.67004 | 9.22306 | 38930 ft | 448 kts | 137° |
| 2026-05-05 08:07 | 43.62837 | 9.28699 | 38933 ft | 448 kts | 137° |
| 2026-05-05 08:07 | 43.58670 | 9.35072 | 38934 ft | 449 kts | 136° |
| 2026-05-05 08:08 | 43.54505 | 9.41429 | 38934 ft | 449 kts | 137° |
| 2026-05-05 08:08 | 43.50313 | 9.47809 | 38931 ft | 450 kts | 136° |
| 2026-05-05 08:09 | 43.46133 | 9.54163 | 38932 ft | 450 kts | 137° |
| 2026-05-05 08:09 | 43.41938 | 9.60522 | 38937 ft | 451 kts | 137° |
| 2026-05-05 08:10 | 43.37729 | 9.66886 | 38936 ft | 450 kts | 137° |
| 2026-05-05 08:10 | 43.33525 | 9.73230 | 38943 ft | 450 kts | 137° |
| 2026-05-05 08:11 | 43.29317 | 9.79566 | 38943 ft | 451 kts | 137° |
| 2026-05-05 08:11 | 43.25101 | 9.85899 | 38940 ft | 451 kts | 137° |
| 2026-05-05 08:12 | 43.20887 | 9.92215 | 38943 ft | 452 kts | 137° |
| 2026-05-05 08:12 | 43.16649 | 9.98558 | 38942 ft | 452 kts | 137° |
| 2026-05-05 08:13 | 43.12388 | 10.04916 | 38947 ft | 453 kts | 137° |
| 2026-05-05 08:13 | 43.08149 | 10.11231 | 38943 ft | 453 kts | 137° |
| 2026-05-05 08:14 | 43.03910 | 10.17532 | 38948 ft | 453 kts | 137° |
| 2026-05-05 08:14 | 42.99645 | 10.23858 | 38789 ft | 454 kts | 137° |
| 2026-05-05 08:15 | 42.97501 | 10.27029 | 37922 ft | 461 kts | 137° |
| 2026-05-05 08:15 | 42.95317 | 10.30254 | 36827 ft | 467 kts | 137° |
| 2026-05-05 08:15 | 42.93114 | 10.33507 | 35982 ft | 471 kts | 137° |
| 2026-05-05 08:15 | 42.90913 | 10.36757 | 35311 ft | 472 kts | 137° |
| 2026-05-05 08:16 | 42.88675 | 10.40057 | 34647 ft | 473 kts | 137° |
| 2026-05-05 08:16 | 42.86458 | 10.43322 | 33929 ft | 474 kts | 137° |
| 2026-05-05 08:16 | 42.84204 | 10.46635 | 33166 ft | 475 kts | 137° |
| 2026-05-05 08:16 | 42.81979 | 10.49906 | 32423 ft | 475 kts | 137° |
| 2026-05-05 08:17 | 42.79727 | 10.53214 | 31658 ft | 476 kts | 137° |
| 2026-05-05 08:17 | 42.77483 | 10.56505 | 30899 ft | 475 kts | 137° |
| 2026-05-05 08:17 | 42.75257 | 10.59763 | 30118 ft | 476 kts | 137° |
| 2026-05-05 08:17 | 42.73087 | 10.63119 | 29488 ft | 473 kts | 133° |
| 2026-05-05 08:18 | 42.71107 | 10.66644 | 28924 ft | 470 kts | 129° |
| 2026-05-05 08:18 | 42.69321 | 10.70332 | 28435 ft | 465 kts | 126° |
| 2026-05-05 08:18 | 42.67641 | 10.74007 | 27971 ft | 459 kts | 125° |
| 2026-05-05 08:18 | 42.65986 | 10.77657 | 27508 ft | 452 kts | 126° |
| 2026-05-05 08:19 | 42.64341 | 10.81272 | 27055 ft | 445 kts | 125° |
| 2026-05-05 08:19 | 42.62724 | 10.84823 | 26605 ft | 439 kts | 124° |
| 2026-05-05 08:19 | 42.61360 | 10.88495 | 26157 ft | 437 kts | 116° |
| 2026-05-05 08:19 | 42.60231 | 10.92264 | 25448 ft | 440 kts | 114° |
| 2026-05-05 08:20 | 42.59114 | 10.96135 | 24447 ft | 448 kts | 114° |
| 2026-05-05 08:20 | 42.57977 | 11.00033 | 23259 ft | 448 kts | 114° |
| 2026-05-05 08:20 | 42.56817 | 11.03944 | 21791 ft | 451 kts | 115° |
| 2026-05-05 08:20 | 42.55641 | 11.07847 | 20451 ft | 447 kts | 115° |
| 2026-05-05 08:21 | 42.54487 | 11.11642 | 19287 ft | 439 kts | 115° |
| 2026-05-05 08:21 | 42.53321 | 11.15450 | 18216 ft | 436 kts | 116° |
| 2026-05-05 08:21 | 42.52177 | 11.19167 | 17518 ft | 431 kts | 116° |
| 2026-05-05 08:21 | 42.51020 | 11.22909 | 16884 ft | 426 kts | 116° |
| 2026-05-05 08:22 | 42.49891 | 11.26557 | 16458 ft | 417 kts | 116° |
| 2026-05-05 08:22 | 42.48795 | 11.30097 | 16076 ft | 407 kts | 115° |
| 2026-05-05 08:22 | 42.47714 | 11.33581 | 15671 ft | 400 kts | 115° |
| 2026-05-05 08:22 | 42.46640 | 11.37034 | 15231 ft | 394 kts | 116° |
| 2026-05-05 08:23 | 42.45597 | 11.40395 | 14813 ft | 388 kts | 115° |
| 2026-05-05 08:23 | 42.44549 | 11.43756 | 14388 ft | 382 kts | 116° |
| 2026-05-05 08:23 | 42.43538 | 11.47003 | 13985 ft | 376 kts | 115° |
| 2026-05-05 08:23 | 42.42520 | 11.50254 | 13602 ft | 371 kts | 115° |
| 2026-05-05 08:24 | 42.41536 | 11.53402 | 13219 ft | 365 kts | 115° |
| 2026-05-05 08:24 | 42.40557 | 11.56527 | 12839 ft | 360 kts | 115° |
| 2026-05-05 08:24 | 42.39585 | 11.59628 | 12463 ft | 354 kts | 115° |
| 2026-05-05 08:24 | 42.38631 | 11.62671 | 12099 ft | 349 kts | 115° |
| 2026-05-05 08:25 | 42.37688 | 11.65673 | 11739 ft | 344 kts | 116° |
| 2026-05-05 08:25 | 42.36775 | 11.68582 | 11389 ft | 339 kts | 116° |
| 2026-05-05 08:25 | 42.35853 | 11.71509 | 11039 ft | 334 kts | 116° |
| 2026-05-05 08:25 | 42.34958 | 11.74349 | 10760 ft | 327 kts | 116° |
| 2026-05-05 08:26 | 42.34076 | 11.77144 | 10475 ft | 321 kts | 116° |
| 2026-05-05 08:26 | 42.33205 | 11.79900 | 10156 ft | 316 kts | 116° |
| 2026-05-05 08:26 | 42.32347 | 11.82617 | 9848 ft | 311 kts | 116° |
| 2026-05-05 08:26 | 42.31508 | 11.85268 | 9543 ft | 307 kts | 116° |
| 2026-05-05 08:27 | 42.30679 | 11.87882 | 9247 ft | 302 kts | 116° |
| 2026-05-05 08:27 | 42.29858 | 11.90472 | 9016 ft | 295 kts | 116° |
| 2026-05-05 08:27 | 42.29071 | 11.92956 | 8972 ft | 281 kts | 116° |
| 2026-05-05 08:27 | 42.28328 | 11.95299 | 8966 ft | 266 kts | 117° |
| 2026-05-05 08:28 | 42.27414 | 11.97331 | 8946 ft | 247 kts | 143° |
| 2026-05-05 08:28 | 42.25951 | 11.98397 | 8757 ft | 234 kts | 168° |
| 2026-05-05 08:28 | 42.24381 | 11.98967 | 8394 ft | 234 kts | 172° |
| 2026-05-05 08:28 | 42.22812 | 11.99498 | 8077 ft | 234 kts | 171° |
| 2026-05-05 08:29 | 42.21233 | 12.00083 | 7787 ft | 233 kts | 169° |
| 2026-05-05 08:29 | 42.19689 | 12.00698 | 7492 ft | 233 kts | 169° |
| 2026-05-05 08:29 | 42.18154 | 12.01334 | 7201 ft | 232 kts | 168° |
| 2026-05-05 08:30 | 42.15094 | 12.02632 | 6611 ft | 230 kts | 168° |
| 2026-05-05 08:30 | 42.13565 | 12.03283 | 6319 ft | 229 kts | 168° |
| 2026-05-05 08:30 | 42.12076 | 12.03995 | 6029 ft | 231 kts | 156° |
| 2026-05-05 08:30 | 42.10807 | 12.05373 | 5754 ft | 236 kts | 138° |
| 2026-05-05 08:31 | 42.09714 | 12.06991 | 5502 ft | 232 kts | 136° |
| 2026-05-05 08:31 | 42.08657 | 12.08590 | 5132 ft | 227 kts | 136° |
| 2026-05-05 08:31 | 42.07621 | 12.10141 | 4768 ft | 220 kts | 136° |
| 2026-05-05 08:31 | 42.06612 | 12.11638 | 4454 ft | 211 kts | 136° |
| 2026-05-05 08:32 | 42.05637 | 12.13073 | 4136 ft | 204 kts | 136° |
| 2026-05-05 08:32 | 42.04693 | 12.14460 | 3867 ft | 200 kts | 136° |
| 2026-05-05 08:32 | 42.03757 | 12.15837 | 3627 ft | 197 kts | 136° |
| 2026-05-05 08:32 | 42.02843 | 12.17182 | 3387 ft | 195 kts | 136° |
| 2026-05-05 08:33 | 42.01849 | 12.18399 | 3128 ft | 191 kts | 148° |
| 2026-05-05 08:33 | 42.00724 | 12.19226 | 3005 ft | 178 kts | 158° |
| 2026-05-05 08:33 | 41.99595 | 12.19822 | 2764 ft | 172 kts | 161° |
| 2026-05-05 08:33 | 41.98497 | 12.20325 | 2638 ft | 160 kts | 162° |
| 2026-05-05 08:34 | 41.97492 | 12.20759 | 2586 ft | 143 kts | 163° |
| 2026-05-05 08:34 | 41.96549 | 12.21157 | 2427 ft | 136 kts | 163° |
| 2026-05-05 08:34 | 41.95654 | 12.21529 | 2244 ft | 134 kts | 162° |
| 2026-05-05 08:34 | 41.94770 | 12.21899 | 2069 ft | 133 kts | 162° |
| 2026-05-05 08:35 | 41.93888 | 12.22266 | 1916 ft | 133 kts | 161° |
| 2026-05-05 08:35 | 41.92998 | 12.22636 | 1743 ft | 133 kts | 161° |
| 2026-05-05 08:35 | 41.92123 | 12.23002 | 1551 ft | 131 kts | 161° |
| 2026-05-05 08:35 | 41.91252 | 12.23378 | 1349 ft | 130 kts | 161° |
| 2026-05-05 08:36 | 41.90396 | 12.23729 | 1192 ft | 130 kts | 161° |
| 2026-05-05 08:36 | 41.89525 | 12.24086 | 1029 ft | 129 kts | 163° |
| 2026-05-05 08:36 | 41.88674 | 12.24429 | 860 ft | 129 kts | 161° |
| 2026-05-05 08:36 | 41.87816 | 12.24801 | 675 ft | 129 kts | 161° |
| 2026-05-05 08:37 | 41.86964 | 12.25152 | 515 ft | 128 kts | 161° |
| 2026-05-05 08:37 | 41.86111 | 12.25498 | 356 ft | 128 kts | 160° |
| 2026-05-05 08:37 | 41.85271 | 12.25862 | 179 ft | 126 kts | 161° |
| 2026-05-05 08:37 | 41.84438 | 12.26215 | 28 ft | 124 kts | 162° |
| 2026-05-05 08:38 | 41.83714 | 12.26520 | 9 ft | 87 kts | 162° |
| 2026-05-05 08:38 | 41.83257 | 12.26709 | 9 ft | 60 kts | 161° |
| 2026-05-05 08:38 | 41.82881 | 12.26859 | 9 ft | 52 kts | 171° |
| 2026-05-05 08:38 | 41.82548 | 12.26822 | 9 ft | 43 kts | 193° |
| 2026-05-05 08:39 | 41.82270 | 12.26803 | 6 ft | 39 kts | 162° |
| 2026-05-05 08:39 | 41.82019 | 12.26908 | 9 ft | 35 kts | 162° |
| 2026-05-05 08:39 | 41.81796 | 12.27003 | 9 ft | 32 kts | 162° |
| 2026-05-05 08:39 | 41.81591 | 12.27087 | 9 ft | 30 kts | 163° |
| 2026-05-05 08:40 | 41.81398 | 12.27169 | 9 ft | 28 kts | 162° |
| 2026-05-05 08:40 | 41.81216 | 12.27247 | 9 ft | 26 kts | 161° |
| 2026-05-05 08:40 | 41.81045 | 12.27324 | 9 ft | 25 kts | 162° |
| 2026-05-05 08:40 | 41.80880 | 12.27347 | 9 ft | 22 kts | 188° |
| 2026-05-05 08:41 | 41.80730 | 12.27314 | 9 ft | 20 kts | 195° |
| 2026-05-05 08:41 | 41.80640 | 12.27180 | 9 ft | 19 kts | 248° |
| 2026-05-05 08:41 | 41.80595 | 12.27016 | 9 ft | 18 kts | 250° |
| 2026-05-05 08:41 | 41.80553 | 12.26859 | 9 ft | 17 kts | 250° |
| 2026-05-05 08:42 | 41.80513 | 12.26710 | 9 ft | 16 kts | 249° |
| 2026-05-05 08:42 | 41.80475 | 12.26573 | 11 ft | 14 kts | 250° |
| 2026-05-05 08:42 | 41.80443 | 12.26455 | 13 ft | 13 kts | 250° |
| 2026-05-05 08:42 | 41.80383 | 12.26372 | 12 ft | 13 kts | 193° |
| 2026-05-05 08:43 | 41.80288 | 12.26399 | 12 ft | 14 kts | 163° |
| 2026-05-05 08:43 | 41.80191 | 12.26393 | 12 ft | 16 kts | 205° |
| 2026-05-05 08:43 | 41.80079 | 12.26323 | 13 ft | 17 kts | 203° |
| 2026-05-05 08:43 | 41.79973 | 12.26259 | 14 ft | 15 kts | 205° |
| 2026-05-05 08:44 | 41.79877 | 12.26195 | 16 ft | 15 kts | 203° |
| 2026-05-05 08:44 | 41.79783 | 12.26139 | 17 ft | 13 kts | 216° |
| 2026-05-05 08:44 | 41.79711 | 12.26079 | 19 ft | 11 kts | 202° |
| 2026-05-05 08:44 | 41.79677 | 12.26035 | 19 ft | 5 kts | 285° |
| 2026-05-05 08:45 | 41.79689 | 12.25995 | 19 ft | 3 kts | 294° |
| 2026-05-05 08:45 | 41.79693 | 12.25986 | 19 ft | 0 kts | 295° |